Time;durP1;ratioP1;P1;durP2;ratioP2;P2;SDS_P1;SDS_P2;PMS_P1;PMS_P2;Temp;Humidity;BMP_temperature;BMP_pressure;BME280_temperature;BME280_humidity;BME280_pressure;Samples;Min_cycle;Max_cycle;Signal;HPM_P1;HPM_P2
2022/08/15 00:01:07;;;;;;;4.85;3.20;;;20.70;99.90;20.80;99689.00;;;;4956657;28;88313;-63
2022/08/15 00:03:38;;;;;;;5.28;3.75;;;20.70;99.90;20.80;99684.00;;;;4956852;28;88371;-63
2022/08/15 00:06:11;;;;;;;4.97;4.25;;;20.70;99.90;20.80;99690.00;;;;4956765;28;87657;-63
2022/08/15 00:08:45;;;;;;;12.77;4.30;;;20.60;99.90;20.80;99697.00;;;;4956412;28;87818;-63
2022/08/15 00:11:22;;;;;;;7.45;3.63;;;20.60;99.90;20.70;99691.00;;;;4956919;28;89080;-63
2022/08/15 00:13:57;;;;;;;4.72;3.63;;;20.60;99.90;20.70;99687.00;;;;4955757;28;88016;-63
2022/08/15 00:16:23;;;;;;;6.60;4.68;;;20.50;99.90;20.70;99682.00;;;;4957965;28;87034;-64
2022/08/15 00:18:49;;;;;;;3.90;3.10;;;20.50;99.90;20.60;99673.00;;;;4970622;28;103917;-63
2022/08/15 00:21:20;;;;;;;4.75;3.70;;;20.50;99.90;20.60;99670.00;;;;4956848;28;98405;-63
2022/08/15 00:23:46;;;;;;;5.18;3.08;;;20.40;99.90;20.60;99670.00;;;;4954926;28;88756;-64
2022/08/15 00:26:13;;;;;;;5.45;3.85;;;20.40;99.90;20.50;99670.00;;;;4956619;28;87804;-63
2022/08/15 00:28:39;;;;;;;4.93;4.07;;;20.40;99.90;20.50;99666.00;;;;4956671;28;87891;-64
2022/08/15 00:31:08;;;;;;;3.85;3.25;;;20.30;99.90;20.50;99661.00;;;;4955361;28;118249;-63
2022/08/15 00:33:35;;;;;;;4.70;4.18;;;20.30;99.90;20.50;99663.00;;;;4956001;28;88074;-63
2022/08/15 00:36:01;;;;;;;5.97;4.03;;;20.30;99.90;20.40;99661.00;;;;4955584;28;109591;-63
2022/08/15 00:38:29;;;;;;;4.78;4.05;;;20.30;99.90;20.40;99667.00;;;;4956300;28;87716;-64
2022/08/15 00:43:50;;;;;;;4.65;3.92;;;20.20;99.90;20.30;99670.00;;;;4955578;28;87599;-64
2022/08/15 00:46:17;;;;;;;4.05;3.70;;;20.20;99.90;20.30;99664.00;;;;4956152;28;87646;-63
2022/08/15 00:48:44;;;;;;;5.30;4.25;;;20.10;99.90;20.20;99653.00;;;;4955088;28;88626;-63
2022/08/15 00:51:55;;;;;;;5.03;4.43;;;20.10;99.90;20.20;99667.00;;;;4955563;28;88966;-64
2022/08/15 00:54:44;;;;;;;3.72;3.47;;;20.10;99.90;20.10;99662.00;;;;4950268;28;87811;-63
2022/08/15 00:57:31;;;;;;;4.55;3.33;;;20.00;99.90;20.10;99651.00;;;;4934602;28;87761;-63
2022/08/15 01:00:03;;;;;;;4.22;3.83;;;20.00;99.90;20.10;99650.00;;;;4933027;28;99257;-63
2022/08/15 01:02:32;;;;;;;7.72;3.75;;;20.00;99.90;20.00;99650.00;;;;4954477;28;100272;-63
2022/08/15 01:04:59;;;;;;;4.57;3.63;;;19.90;99.90;20.00;99649.00;;;;4955302;28;88603;-63
2022/08/15 01:07:26;;;;;;;5.63;3.33;;;19.90;99.90;20.00;99650.00;;;;4957091;28;87155;-63
2022/08/15 01:09:53;;;;;;;5.00;4.53;;;19.90;99.90;20.00;99648.00;;;;4956246;28;87823;-63
2022/08/15 01:12:23;;;;;;;5.13;4.55;;;19.80;99.90;20.00;99645.00;;;;4954062;28;88774;-63
2022/08/15 01:14:56;;;;;;;4.25;3.63;;;19.80;99.90;19.90;99639.00;;;;4932901;28;109907;-63
2022/08/15 01:17:22;;;;;;;6.97;4.47;;;19.80;99.90;19.90;99632.00;;;;4936648;28;96395;-63
2022/08/15 01:20:06;;;;;;;4.40;4.00;;;19.70;99.90;19.80;99638.00;;;;4969128;28;101069;-63
2022/08/15 01:22:47;;;;;;;5.15;4.25;;;19.70;99.90;19.80;99641.00;;;;4953246;28;88157;-64
2022/08/15 01:25:32;;;;;;;6.22;4.32;;;19.60;99.90;19.70;99635.00;;;;4953719;28;110681;-64
2022/08/15 01:28:08;;;;;;;5.72;4.47;;;19.60;99.90;19.70;99635.00;;;;4954256;28;88173;-64
2022/08/15 01:30:46;;;;;;;5.75;4.20;;;19.60;99.90;19.70;99630.00;;;;4953417;28;88824;-64
2022/08/15 01:33:14;;;;;;;7.95;4.43;;;19.60;99.90;19.70;99627.00;;;;4955684;28;87019;-64
2022/08/15 01:35:41;;;;;;;6.60;3.35;;;19.50;99.90;19.70;99639.00;;;;4953610;28;87932;-63
2022/08/15 01:38:30;;;;;;;7.45;4.25;;;19.50;99.90;19.60;99641.00;;;;4955018;28;87799;-63
2022/08/15 01:41:04;;;;;;;6.38;3.90;;;19.50;99.90;19.60;99639.00;;;;4955293;28;88608;-63
2022/08/15 01:43:38;;;;;;;4.53;3.58;;;19.50;99.90;19.60;99629.00;;;;4955216;28;88101;-63
2022/08/15 01:46:08;;;;;;;5.05;4.05;;;19.50;99.90;19.50;99636.00;;;;4954609;28;88384;-64
2022/08/15 01:48:45;;;;;;;5.15;3.95;;;19.40;99.90;19.50;99628.00;;;;4955997;28;95110;-64
2022/08/15 01:51:12;;;;;;;4.78;4.07;;;19.40;99.90;19.50;99628.00;;;;4955543;28;99838;-63
2022/08/15 01:53:56;;;;;;;5.57;4.15;;;19.40;99.90;19.40;99625.00;;;;4954233;28;88862;-64
2022/08/15 01:56:36;;;;;;;4.15;3.83;;;19.30;99.90;19.40;99637.00;;;;4953644;28;88192;-63
2022/08/15 01:59:05;;;;;;;8.90;4.65;;;19.30;99.90;19.40;99637.00;;;;4955707;28;87137;-64
2022/08/15 02:01:50;;;;;;;4.63;4.10;;;19.20;99.90;19.30;99634.00;;;;4955425;28;87553;-64
2022/08/15 02:04:22;;;;;;;3.78;3.42;;;19.20;99.90;19.30;99638.00;;;;4958019;28;111721;-63
2022/08/15 02:06:48;;;;;;;7.70;4.65;;;19.20;99.90;19.30;99628.00;;;;4959105;28;88757;-63
2022/08/15 02:09:17;;;;;;;4.60;3.83;;;19.10;99.90;19.20;99631.00;;;;4958167;28;89332;-63
2022/08/15 02:11:44;;;;;;;6.13;5.53;;;19.10;99.90;19.20;99631.00;;;;4958950;28;87907;-64
2022/08/15 02:14:11;;;;;;;6.40;3.85;;;19.10;99.90;19.10;99613.00;;;;4958097;28;88044;-63
2022/08/15 02:16:39;;;;;;;4.55;4.10;;;19.00;99.90;19.10;99608.00;;;;4958333;28;96965;-63
2022/08/15 02:19:09;;;;;;;5.65;3.88;;;19.00;99.90;19.10;99606.00;;;;4957155;28;89727;-64
2022/08/15 02:21:38;;;;;;;6.93;4.97;;;18.90;99.90;19.10;99597.00;;;;4958314;28;98519;-63
2022/08/15 02:24:13;;;;;;;5.25;4.80;;;18.90;99.90;19.00;99600.00;;;;4958175;28;88476;-63
2022/08/15 02:26:38;;;;;;;5.55;4.60;;;18.90;99.90;19.00;99593.00;;;;4958066;28;88397;-63
2022/08/15 02:29:05;;;;;;;5.45;4.95;;;18.90;99.90;19.00;99588.00;;;;4957868;28;108452;-63
2022/08/15 02:31:32;;;;;;;6.43;4.93;;;18.90;99.90;19.00;99589.00;;;;4958053;28;88910;-63
2022/08/15 02:34:00;;;;;;;7.38;5.15;;;18.90;99.90;19.00;99591.00;;;;4957876;28;88648;-63
2022/08/15 02:36:31;;;;;;;6.30;5.40;;;18.80;99.90;19.00;99595.00;;;;4958619;28;107956;-64
2022/08/15 02:38:58;;;;;;;5.28;4.63;;;18.80;99.90;18.90;99597.00;;;;4955549;28;89125;-63
2022/08/15 02:41:36;;;;;;;5.88;5.22;;;18.80;99.90;18.90;99583.00;;;;4959066;28;87430;-63
2022/08/15 02:44:02;;;;;;;10.30;5.45;;;18.70;99.90;18.90;99598.00;;;;4956691;28;88469;-64
2022/08/15 02:46:29;;;;;;;8.02;5.85;;;18.70;99.90;18.80;99598.00;;;;4956003;28;88037;-63
2022/08/15 02:48:58;;;;;;;7.97;5.25;;;18.70;99.90;18.80;99600.00;;;;4957515;28;110942;-64
2022/08/15 02:51:27;;;;;;;7.43;5.53;;;18.60;99.90;18.70;99599.00;;;;4958297;28;87919;-64
2022/08/15 02:53:55;;;;;;;5.78;4.20;;;18.60;99.90;18.70;99601.00;;;;4956990;28;88282;-63
2022/08/15 02:56:26;;;;;;;5.97;5.10;;;18.60;99.90;18.60;99605.00;;;;4957639;28;90519;-64
2022/08/15 02:58:52;;;;;;;6.68;5.70;;;18.50;99.90;18.60;99604.00;;;;4957014;28;102438;-63
2022/08/15 03:01:21;;;;;;;6.95;4.93;;;18.50;99.90;18.60;99603.00;;;;4958061;28;87865;-63
2022/08/15 03:03:53;;;;;;;6.80;5.82;;;18.40;99.90;18.50;99602.00;;;;4956746;28;103818;-63
2022/08/15 03:06:24;;;;;;;6.60;5.88;;;18.40;99.90;18.50;99599.00;;;;4958154;28;88880;-63
2022/08/15 03:08:51;;;;;;;7.50;4.72;;;18.40;99.90;18.50;99594.00;;;;4956990;28;87864;-64
2022/08/15 03:11:17;;;;;;;6.03;4.72;;;18.30;99.90;18.40;99589.00;;;;4957387;28;87815;-64
2022/08/15 03:13:43;;;;;;;12.43;4.95;;;18.30;99.90;18.40;99590.00;;;;4955924;28;87915;-64
2022/08/15 03:16:12;;;;;;;6.47;5.15;;;18.40;99.90;18.40;99579.00;;;;4957849;28;88177;-63
2022/08/15 03:18:41;;;;;;;8.20;5.88;;;18.30;99.90;18.40;99579.00;;;;4957012;28;87692;-63
2022/08/15 03:21:11;;;;;;;6.35;5.22;;;18.20;99.90;18.40;99585.00;;;;4956167;28;89024;-63
2022/08/15 03:23:38;;;;;;;7.03;5.45;;;18.20;99.90;18.30;99598.00;;;;4957270;28;88307;-63
2022/08/15 03:26:04;;;;;;;6.40;4.95;;;18.20;99.90;18.30;99588.00;;;;4957256;28;87796;-63
2022/08/15 03:28:33;;;;;;;6.78;6.03;;;18.20;99.90;18.30;99586.00;;;;4957202;28;101326;-63
2022/08/15 03:31:03;;;;;;;10.00;7.32;;;18.20;99.90;18.30;99587.00;;;;4957453;28;87994;-63
2022/08/15 03:33:31;;;;;;;7.05;4.82;;;18.20;99.90;18.30;99595.00;;;;4956469;28;87740;-64
2022/08/15 03:35:58;;;;;;;8.27;6.15;;;18.20;99.90;18.30;99587.00;;;;4945299;28;87630;-64
2022/08/15 03:38:25;;;;;;;4.70;4.30;;;18.20;99.90;18.30;99593.00;;;;4957463;28;90799;-64
2022/08/15 03:40:51;;;;;;;7.65;6.90;;;18.10;99.90;18.30;99584.00;;;;4955707;28;87855;-64
2022/08/15 03:43:28;;;;;;;8.45;5.95;;;18.10;99.90;18.30;99581.00;;;;4957123;28;96545;-64
2022/08/15 03:46:00;;;;;;;5.47;4.75;;;18.10;99.90;18.20;99586.00;;;;4957118;28;89402;-65
2022/08/15 03:48:35;;;;;;;6.65;5.97;;;18.10;99.90;18.20;99593.00;;;;4952390;28;87817;-64
2022/08/15 03:51:01;;;;;;;6.15;5.57;;;18.10;99.90;18.20;99591.00;;;;4957650;28;87835;-64
2022/08/15 03:53:32;;;;;;;8.25;6.93;;;18.10;99.90;18.10;99581.00;;;;4956780;28;88158;-64
2022/08/15 03:56:00;;;;;;;7.88;6.22;;;18.00;99.90;18.10;99586.00;;;;4956153;28;105746;-64
2022/08/15 03:58:27;;;;;;;8.77;6.03;;;18.00;99.90;18.10;99587.00;;;;4956677;28;87958;-64
2022/08/15 04:00:53;;;;;;;6.88;5.20;;;18.00;99.90;18.10;99590.00;;;;4957780;28;87733;-64
2022/08/15 04:03:27;;;;;;;8.45;5.88;;;18.00;99.90;18.10;99589.00;;;;4957483;28;88231;-64
2022/08/15 04:05:58;;;;;;;8.57;5.97;;;17.90;99.90;18.10;99590.00;;;;4956912;28;87875;-64
2022/08/15 04:08:25;;;;;;;9.07;6.85;;;18.00;99.90;18.10;99596.00;;;;4957873;28;87859;-64
2022/08/15 04:10:53;;;;;;;7.13;6.32;;;17.90;99.90;18.10;99597.00;;;;4957479;28;88585;-64
2022/08/15 04:13:24;;;;;;;7.57;5.30;;;17.90;99.90;18.10;99584.00;;;;4971373;28;88088;-64
2022/08/15 04:15:51;;;;;;;11.65;7.88;;;18.00;99.90;18.10;99585.00;;;;4954531;28;88331;-64
2022/08/15 04:18:17;;;;;;;8.68;6.47;;;18.00;99.90;18.20;99584.00;;;;4957097;28;87663;-64
2022/08/15 04:20:43;;;;;;;9.40;6.32;;;18.00;99.90;18.20;99599.00;;;;4956943;28;99048;-64
2022/08/15 04:23:10;;;;;;;7.00;6.22;;;18.00;99.90;18.20;99590.00;;;;4956216;28;109155;-64
2022/08/15 04:25:39;;;;;;;11.18;7.63;;;18.10;99.90;18.20;99595.00;;;;4955803;28;89086;-64
2022/08/15 04:28:06;;;;;;;13.05;6.78;;;18.10;99.90;18.30;99588.00;;;;4956927;28;102348;-64
2022/08/15 04:30:39;;;;;;;9.13;7.32;;;18.10;99.90;18.30;99585.00;;;;4956699;28;87656;-64
2022/08/15 04:33:11;;;;;;;8.43;6.30;;;18.10;99.90;18.40;99585.00;;;;4957131;28;89445;-64
2022/08/15 04:35:40;;;;;;;13.10;8.10;;;18.20;99.90;18.40;99591.00;;;;4951723;28;88708;-64
2022/08/15 04:38:06;;;;;;;7.55;6.05;;;18.20;99.90;18.40;99582.00;;;;4954519;28;87760;-64
2022/08/15 04:40:33;;;;;;;9.45;6.72;;;18.30;99.90;18.50;99583.00;;;;4953164;28;91067;-64
2022/08/15 04:42:59;;;;;;;9.27;7.45;;;18.30;99.90;18.50;99589.00;;;;4952502;28;97232;-63
2022/08/15 04:45:30;;;;;;;10.73;7.13;;;18.30;99.90;18.50;99586.00;;;;4952519;28;88320;-64
2022/08/15 04:48:02;;;;;;;12.45;7.47;;;18.30;99.90;18.50;99599.00;;;;4945218;28;88141;-64
2022/08/15 04:50:34;;;;;;;10.43;5.65;;;18.40;99.90;18.60;99602.00;;;;4952313;28;87961;-64
2022/08/15 04:53:01;;;;;;;11.10;7.47;;;18.40;99.90;18.60;99604.00;;;;4952935;28;87969;-64
2022/08/15 04:55:28;;;;;;;11.20;7.20;;;18.40;99.90;18.60;99598.00;;;;4949368;28;87996;-64
2022/08/15 04:57:56;;;;;;;11.15;7.38;;;18.40;99.90;18.60;99591.00;;;;4946981;28;98806;-65
2022/08/15 05:00:27;;;;;;;9.80;7.47;;;18.40;99.90;18.60;99600.00;;;;4952511;28;88778;-63
2022/08/15 05:03:09;;;;;;;8.55;6.45;;;18.40;99.90;18.60;99601.00;;;;4952984;28;88213;-64
2022/08/15 05:06:01;;;;;;;7.45;6.28;;;18.40;99.90;18.60;99589.00;;;;4949873;28;87758;-64
2022/08/15 05:08:30;;;;;;;10.02;7.80;;;18.40;99.90;18.60;99604.00;;;;4952100;28;87898;-64
2022/08/15 05:11:01;;;;;;;7.53;6.78;;;18.40;99.90;18.60;99601.00;;;;4952680;28;87873;-64
2022/08/15 05:13:30;;;;;;;11.68;6.65;;;18.40;99.90;18.60;99590.00;;;;4953817;28;105719;-64
2022/08/15 05:15:58;;;;;;;12.48;8.93;;;18.40;99.90;18.70;99592.00;;;;4955852;28;89078;-64
2022/08/15 05:18:25;;;;;;;8.35;6.70;;;18.40;99.90;18.70;99589.00;;;;4955771;28;87346;-64
2022/08/15 05:20:53;;;;;;;9.30;7.43;;;18.50;99.90;18.70;99591.00;;;;4954690;28;98269;-64
2022/08/15 05:23:23;;;;;;;10.68;7.90;;;18.50;99.90;18.80;99587.00;;;;4954773;28;88661;-64
2022/08/15 05:25:55;;;;;;;11.90;7.05;;;18.60;99.90;18.90;99578.00;;;;4954416;28;99654;-64
2022/08/15 05:28:22;;;;;;;10.88;8.27;;;18.70;99.90;19.00;99579.00;;;;4955382;28;88001;-64
2022/08/15 05:30:50;;;;;;;11.27;8.90;;;18.80;99.90;19.10;99584.00;;;;4955040;28;87853;-64
2022/08/15 05:33:20;;;;;;;7.07;5.97;;;18.90;99.90;19.30;99588.00;;;;4954872;28;88146;-64
2022/08/15 05:35:52;;;;;;;12.40;7.57;;;19.00;99.90;19.40;99588.00;;;;4955041;28;92813;-64
2022/08/15 05:38:27;;;;;;;12.63;7.82;;;19.20;99.90;19.60;99584.00;;;;4954790;28;88137;-64
2022/08/15 05:41:33;;;;;;;11.75;7.90;;;19.30;99.90;19.80;99591.00;;;;4954931;28;98266;-64
2022/08/15 05:44:02;;;;;;;10.57;7.82;;;19.50;99.90;19.90;99590.00;;;;4950211;28;88136;-65
2022/08/15 05:47:07;;;;;;;9.75;6.80;;;19.70;99.90;20.10;99597.00;;;;4954624;28;88478;-65
2022/08/15 05:49:53;;;;;;;10.90;8.02;;;19.80;99.90;20.20;99591.00;;;;4966738;28;88133;-64
2022/08/15 05:52:48;;;;;;;11.70;6.30;;;20.00;99.90;20.40;99589.00;;;;4953316;28;88893;-65
2022/08/15 05:55:25;;;;;;;8.70;7.28;;;20.10;99.90;20.60;99588.00;;;;4954433;28;89497;-65
2022/08/15 05:58:23;;;;;;;12.93;7.38;;;20.30;99.90;20.80;99586.00;;;;4954047;28;110938;-64
2022/08/15 06:01:06;;;;;;;8.82;5.68;;;20.50;99.90;21.00;99580.00;;;;4955190;28;87731;-64
2022/08/15 06:03:35;;;;;;;11.93;7.13;;;20.70;99.90;21.30;99581.00;;;;4955543;28;87718;-66
2022/08/15 06:06:12;;;;;;;8.23;6.20;;;20.90;99.90;21.50;99582.00;;;;4969273;28;88475;-64
2022/08/15 06:08:48;;;;;;;8.48;6.70;;;21.20;99.90;21.80;99570.00;;;;4954235;28;88530;-65
2022/08/15 06:11:23;;;;;;;8.32;6.50;;;21.40;99.90;22.00;99571.00;;;;4953127;28;98092;-65
2022/08/15 06:14:12;;;;;;;12.07;7.53;;;21.70;99.90;22.30;99579.00;;;;4954540;28;87888;-65
2022/08/15 06:16:49;;;;;;;10.98;6.07;;;21.90;99.90;22.60;99582.00;;;;4952752;28;88270;-65
2022/08/15 06:19:28;;;;;;;7.80;5.90;;;22.20;99.90;22.70;99581.00;;;;4968702;28;88684;-64
2022/08/15 06:22:12;;;;;;;7.03;5.32;;;22.40;99.90;22.90;99573.00;;;;4969183;28;89136;-64
2022/08/15 06:24:53;;;;;;;8.55;4.90;;;22.60;99.90;23.10;99571.00;;;;4952766;28;87885;-64
2022/08/15 06:27:31;;;;;;;5.05;4.10;;;22.70;99.90;23.30;99582.00;;;;4952615;28;106615;-65
2022/08/15 06:30:16;;;;;;;5.85;4.43;;;22.90;99.90;23.50;99573.00;;;;4952929;28;88773;-65
2022/08/15 06:33:04;;;;;;;5.25;4.32;;;23.20;99.90;23.70;99579.00;;;;4952723;28;88053;-65
2022/08/15 06:35:49;;;;;;;5.30;4.03;;;23.40;99.90;23.90;99572.00;;;;4954808;28;87779;-65
2022/08/15 06:38:26;;;;;;;5.18;4.20;;;23.60;99.90;24.20;99564.00;;;;4954347;28;107088;-66
2022/08/15 06:41:02;;;;;;;3.53;3.22;;;23.80;99.90;24.40;99564.00;;;;4951540;28;109160;-66
2022/08/15 06:43:28;;;;;;;4.85;3.60;;;24.00;99.90;24.60;99569.00;;;;4953515;28;96277;-65
2022/08/15 06:45:56;;;;;;;4.57;3.88;;;24.20;99.90;24.70;99562.00;;;;4954002;28;88603;-65
2022/08/15 06:48:29;;;;;;;4.80;3.75;;;24.30;99.90;24.80;99578.00;;;;4966108;28;89007;-65
2022/08/15 06:50:59;;;;;;;6.35;4.28;;;24.50;99.90;24.90;99573.00;;;;4955534;28;96763;-63
2022/08/15 06:53:37;;;;;;;6.85;4.20;;;24.60;99.90;25.10;99570.00;;;;4972373;28;87659;-63
2022/08/15 06:56:24;;;;;;;3.30;2.63;;;24.70;99.90;25.20;99565.00;;;;4957001;28;98982;-63
2022/08/15 06:59:36;;;;;;;5.88;2.97;;;24.90;99.90;25.40;99556.00;;;;4955671;28;87867;-62
2022/08/15 07:02:40;;;;;;;5.35;3.47;;;25.10;99.90;25.40;99568.00;;;;4957332;28;88386;-65
2022/08/15 07:05:17;;;;;;;4.90;3.35;;;25.10;99.40;25.40;99564.00;;;;4955903;28;87057;-64
2022/08/15 07:08:09;;;;;;;2.72;2.25;;;25.10;99.10;25.40;99567.00;;;;4957013;28;99015;-63
2022/08/15 07:10:56;;;;;;;3.80;3.15;;;25.10;99.20;25.50;99568.00;;;;4957726;28;87924;-65
2022/08/15 07:13:32;;;;;;;5.10;3.53;;;25.20;99.00;25.50;99561.00;;;;4955070;28;103416;-65
2022/08/15 07:16:24;;;;;;;4.40;3.13;;;25.20;98.30;25.40;99564.00;;;;4957592;28;87623;-65
2022/08/15 07:18:55;;;;;;;3.78;2.85;;;25.20;97.70;25.40;99574.00;;;;4954455;28;98382;-65
2022/08/15 07:21:22;;;;;;;4.00;3.20;;;25.20;97.80;25.40;99572.00;;;;4971200;28;111824;-65
2022/08/15 07:24:11;;;;;;;5.75;3.75;;;25.20;97.10;25.40;99570.00;;;;4956069;28;95966;-63
2022/08/15 07:27:12;;;;;;;3.65;3.30;;;25.20;97.10;25.50;99567.00;;;;4957640;28;87987;-65
2022/08/15 07:29:37;;;;;;;4.38;3.28;;;25.20;97.30;25.70;99570.00;;;;4953945;28;103415;-63
2022/08/15 07:32:28;;;;;;;4.70;3.60;;;25.30;96.90;25.80;99578.00;;;;4956227;28;116308;-63
2022/08/15 07:35:18;;;;;;;4.65;2.70;;;25.60;96.80;26.10;99575.00;;;;4972048;28;87935;-63
2022/08/15 07:37:46;;;;;;;5.78;3.03;;;25.70;95.90;26.30;99572.00;;;;4950315;28;87735;-63
2022/08/15 07:40:41;;;;;;;3.72;3.33;;;25.90;95.10;26.50;99571.00;;;;4956981;28;93153;-64
2022/08/15 07:43:31;;;;;;;4.30;3.08;;;26.10;94.30;26.70;99573.00;;;;4957844;28;89597;-63
2022/08/15 07:46:14;;;;;;;3.60;3.05;;;26.30;94.10;26.90;99571.00;;;;4956664;28;87797;-63
2022/08/15 07:48:42;;;;;;;4.03;2.95;;;26.60;93.30;27.10;99564.00;;;;4956461;28;87644;-64
2022/08/15 07:51:38;;;;;;;3.67;2.85;;;26.80;92.70;27.50;99566.00;;;;4971816;28;87911;-63
2022/08/15 07:54:22;;;;;;;4.88;3.08;;;27.10;92.20;27.70;99564.00;;;;4971546;28;88768;-63
2022/08/15 07:56:58;;;;;;;2.70;2.35;;;27.40;90.30;27.90;99571.00;;;;4956128;28;88546;-63
2022/08/15 07:59:25;;;;;;;3.40;3.00;;;27.60;89.00;28.10;99571.00;;;;4956501;28;88572;-63
2022/08/15 08:02:02;;;;;;;4.60;3.03;;;27.80;87.60;28.30;99565.00;;;;4956727;28;87864;-63
2022/08/15 08:04:29;;;;;;;3.20;2.65;;;28.00;87.00;28.60;99570.00;;;;4954010;28;89183;-64
2022/08/15 08:07:31;;;;;;;4.97;3.28;;;28.30;85.90;28.90;99572.00;;;;4955605;28;118038;-63
2022/08/15 08:10:13;;;;;;;4.13;3.13;;;28.50;85.10;29.20;99575.00;;;;4937266;28;87908;-63
2022/08/15 08:13:01;;;;;;;6.38;3.03;;;28.90;82.50;29.40;99573.00;;;;4956604;28;99653;-62
2022/08/15 08:15:40;;;;;;;4.28;3.10;;;29.10;79.60;29.60;99568.00;;;;4956080;28;88803;-62
2022/08/15 08:18:19;;;;;;;3.33;3.03;;;29.30;78.70;29.80;99576.00;;;;4970876;28;89463;-63
2022/08/15 08:20:58;;;;;;;3.38;2.97;;;29.40;76.70;29.80;99574.00;;;;4970552;28;102136;-63
2022/08/15 08:23:38;;;;;;;5.22;3.05;;;29.50;77.00;30.00;99575.00;;;;4954666;28;87846;-63
2022/08/15 08:26:43;;;;;;;4.40;3.85;;;29.60;75.50;30.10;99572.00;;;;4955016;28;99558;-63
2022/08/15 08:29:49;;;;;;;4.28;3.35;;;29.80;74.80;30.20;99578.00;;;;4949212;28;108350;-63
2022/08/15 08:32:49;;;;;;;3.20;2.90;;;29.90;72.10;30.10;99571.00;;;;4954521;28;87667;-63
2022/08/15 08:35:37;;;;;;;4.05;2.97;;;29.90;72.10;30.20;99569.00;;;;4947641;28;88865;-63
2022/08/15 08:38:36;;;;;;;4.55;3.08;;;29.90;72.30;30.40;99563.00;;;;4970960;28;87816;-63
2022/08/15 08:41:34;;;;;;;4.15;2.35;;;30.00;68.50;30.70;99567.00;;;;4956454;28;87749;-63
2022/08/15 08:44:40;;;;;;;6.20;3.03;;;30.20;69.10;31.00;99571.00;;;;4963186;28;87887;-63
2022/08/15 08:47:31;;;;;;;7.00;3.22;;;30.60;67.00;31.30;99566.00;;;;4956414;28;87915;-64
2022/08/15 08:50:41;;;;;;;3.17;2.47;;;30.80;65.50;31.50;99563.00;;;;4936036;28;87947;-63
2022/08/15 08:53:36;;;;;;;4.38;2.90;;;31.00;64.70;31.70;99565.00;;;;4937273;28;105576;-63
2022/08/15 08:56:27;;;;;;;2.45;2.25;;;31.20;63.90;31.80;99572.00;;;;4954245;28;87168;-63
2022/08/15 08:59:19;;;;;;;7.78;3.38;;;31.40;60.80;31.90;99563.00;;;;4970061;28;88458;-63
2022/08/15 09:01:52;;;;;;;6.78;2.47;;;31.40;61.10;32.00;99565.00;;;;4950679;28;88333;-63
2022/08/15 09:04:27;;;;;;;4.68;3.20;;;31.50;60.50;32.00;99566.00;;;;4938433;28;104758;-63
2022/08/15 09:06:55;;;;;;;3.72;2.90;;;31.60;59.80;32.20;99563.00;;;;4970502;28;87829;-64
2022/08/15 09:09:34;;;;;;;2.78;2.58;;;31.70;58.60;32.40;99564.00;;;;4953950;28;87910;-65
2022/08/15 09:15:06;;;;;;;3.15;2.90;;;32.00;58.00;32.80;99562.00;;;;4952751;28;87995;-64
2022/08/15 09:17:35;;;;;;;3.58;2.90;;;32.20;57.70;33.10;99568.00;;;;4955762;28;88031;-63
2022/08/15 09:20:13;;;;;;;5.20;2.95;;;32.50;57.70;33.60;99561.00;;;;4969294;28;109166;-65
2022/08/15 09:22:39;;;;;;;5.15;2.88;;;32.90;56.50;33.90;99562.00;;;;4955218;28;109317;-63
2022/08/15 09:25:07;;;;;;;5.72;3.00;;;33.20;55.70;34.20;99555.00;;;;4970219;28;100995;-63
2022/08/15 09:27:50;;;;;;;4.32;2.80;;;33.50;55.10;34.50;99561.00;;;;4954872;28;87965;-63
2022/08/15 09:30:17;;;;;;;4.57;2.88;;;33.80;54.70;34.70;99555.00;;;;4955008;28;88593;-64
2022/08/15 09:33:19;;;;;;;3.05;2.30;;;34.10;54.00;35.00;99555.00;;;;4969171;28;116301;-65
2022/08/15 09:35:50;;;;;;;4.55;2.92;;;34.30;53.60;35.20;99548.00;;;;4955340;28;90615;-66
2022/08/15 09:38:41;;;;;;;2.53;2.17;;;34.50;51.40;35.30;99546.00;;;;4954536;28;95019;-67
2022/08/15 09:41:57;;;;;;;3.97;2.40;;;34.60;49.90;35.40;99544.00;;;;4954258;28;87785;-66
2022/08/15 09:45:08;;;;;;;2.67;2.00;;;34.80;48.40;35.30;99541.00;;;;4953097;28;89214;-65
2022/08/15 09:48:21;;;;;;;3.85;2.70;;;34.80;48.60;35.30;99544.00;;;;4953950;28;87953;-64
2022/08/15 09:51:12;;;;;;;3.22;2.92;;;34.80;48.50;35.30;99528.00;;;;4943381;28;86973;-64
2022/08/15 09:54:07;;;;;;;3.15;2.35;;;34.80;47.10;34.80;99533.00;;;;4946972;28;88740;-65
2022/08/15 09:56:37;;;;;;;4.05;2.75;;;34.50;47.50;34.70;99529.00;;;;4955201;28;88404;-65
2022/08/15 09:59:26;;;;;;;5.90;2.72;;;34.30;48.30;34.50;99531.00;;;;4953489;28;89000;-65
2022/08/15 10:02:16;;;;;;;3.10;2.05;;;34.10;46.10;34.30;99520.00;;;;4955505;28;87728;-65
2022/08/15 10:04:44;;;;;;;2.60;2.00;;;33.90;46.90;34.40;99521.00;;;;4947456;28;87761;-64
2022/08/15 10:07:10;;;;;;;1.85;1.70;;;33.90;46.90;34.40;99523.00;;;;4955320;28;108749;-64
2022/08/15 10:09:42;;;;;;;3.60;2.33;;;33.90;45.80;34.20;99523.00;;;;4953293;28;117500;-66
2022/08/15 10:12:08;;;;;;;2.95;2.13;;;33.80;45.70;34.00;99516.00;;;;4954565;28;102587;-64
2022/08/15 10:14:52;;;;;;;3.63;2.38;;;33.50;46.20;33.90;99514.00;;;;4954810;28;87932;-65
2022/08/15 10:17:36;;;;;;;3.90;2.05;;;33.40;46.50;34.00;99512.00;;;;4954837;28;95557;-64
2022/08/15 10:20:16;;;;;;;3.33;1.60;;;33.40;46.50;34.00;99507.00;;;;4954287;28;87851;-65
2022/08/15 10:23:00;;;;;;;2.72;2.03;;;33.40;46.80;33.80;99513.00;;;;4954249;28;107673;-65
2022/08/15 10:25:36;;;;;;;3.55;2.28;;;33.40;46.40;33.60;99523.00;;;;4957523;28;88628;-65
2022/08/15 10:28:10;;;;;;;3.15;2.15;;;33.10;46.60;33.20;99510.00;;;;4957802;28;89059;-64
2022/08/15 10:30:41;;;;;;;3.78;1.70;;;32.90;46.60;33.10;99506.00;;;;4957841;28;88792;-65
2022/08/15 10:33:28;;;;;;;2.90;1.95;;;32.80;47.30;33.20;99515.00;;;;4958022;28;87797;-64
2022/08/15 10:36:14;;;;;;;2.35;2.00;;;32.70;47.20;33.30;99505.00;;;;4957969;28;87589;-64
2022/08/15 10:39:15;;;;;;;4.40;2.33;;;32.70;47.30;33.50;99509.00;;;;4957868;28;88066;-64
2022/08/15 10:42:01;;;;;;;3.90;1.75;;;32.80;47.20;33.40;99499.00;;;;4957701;28;88121;-64
2022/08/15 10:44:44;;;;;;;3.15;2.60;;;32.90;47.00;33.30;99499.00;;;;4957932;28;87048;-65
2022/08/15 10:47:47;;;;;;;3.50;2.13;;;32.80;47.50;33.60;99493.00;;;;4957958;28;87712;-65
2022/08/15 10:50:26;;;;;;;3.97;2.67;;;32.90;47.90;34.00;99491.00;;;;4940898;28;88016;-64
2022/08/15 10:52:57;;;;;;;3.25;2.15;;;33.30;46.00;34.40;99485.00;;;;4957216;28;88600;-64
2022/08/15 10:55:40;;;;;;;2.10;1.42;;;33.60;46.10;34.80;99482.00;;;;4961507;28;87767;-64
2022/08/15 10:58:13;;;;;;;8.07;2.28;;;33.80;44.90;35.20;99471.00;;;;4958334;28;87702;-64
2022/08/15 11:00:51;;;;;;;3.28;1.77;;;34.30;44.70;35.30;99485.00;;;;4957162;28;87803;-65
2022/08/15 11:03:29;;;;;;;2.15;1.48;;;34.50;42.70;35.20;99480.00;;;;4957747;28;88748;-65
2022/08/15 11:06:13;;;;;;;2.03;1.70;;;34.50;43.20;35.40;99476.00;;;;4972398;28;87850;-65
2022/08/15 11:08:49;;;;;;;2.13;1.77;;;34.60;42.40;35.50;99468.00;;;;4957597;28;89035;-65
2022/08/15 11:11:19;;;;;;;2.13;1.92;;;34.70;41.80;35.70;99478.00;;;;4958158;28;88374;-64
2022/08/15 11:13:54;;;;;;;5.95;2.25;;;34.90;42.20;36.20;99472.00;;;;4956454;28;104530;-64
2022/08/15 11:16:35;;;;;;;2.92;1.60;;;35.20;42.60;36.90;99469.00;;;;4955815;28;105543;-65
2022/08/15 11:19:31;;;;;;;1.52;1.05;;;35.80;42.90;37.60;99477.00;;;;4955274;28;89135;-64
2022/08/15 11:22:07;;;;;;;2.05;1.52;;;36.50;41.60;38.00;99471.00;;;;4956774;28;88933;-65
2022/08/15 11:24:37;;;;;;;1.95;1.38;;;37.00;40.70;38.40;99476.00;;;;4937066;28;111203;-64
2022/08/15 11:27:24;;;;;;;4.90;1.70;;;37.40;40.80;39.10;99470.00;;;;4937788;28;87709;-64
2022/08/15 11:29:52;;;;;;;3.05;1.70;;;38.00;40.40;39.50;99471.00;;;;4957677;28;87686;-65
2022/08/15 11:32:33;;;;;;;3.45;1.83;;;38.50;39.20;39.70;99472.00;;;;4955480;28;89065;-65
2022/08/15 11:35:07;;;;;;;4.93;1.90;;;38.80;38.90;39.90;99470.00;;;;4955773;28;87912;-64
2022/08/15 11:37:41;;;;;;;2.25;2.05;;;38.90;37.70;39.80;99470.00;;;;4957121;28;87111;-65
2022/08/15 11:40:32;;;;;;;2.35;2.15;;;38.90;36.90;39.30;99475.00;;;;4972034;28;87691;-65